createdAt,value
2023-12-18T00:02:19.568Z,11.88
2023-12-18T00:05:22.237Z,18.95
2023-12-18T00:08:24.922Z,18.77
2023-12-18T00:11:27.605Z,18.13
2023-12-18T00:14:30.216Z,19.27
2023-12-18T00:17:33.081Z,17.98
2023-12-18T00:20:35.800Z,18.83
2023-12-18T00:23:38.442Z,19.50
2023-12-18T00:26:41.191Z,23.43
2023-12-18T00:29:43.850Z,23.17
2023-12-18T00:32:46.565Z,19.88
2023-12-18T00:35:49.257Z,16.45
2023-12-18T00:38:51.940Z,17.13
2023-12-18T00:41:54.619Z,14.50
2023-12-18T00:44:57.295Z,19.52
2023-12-18T00:48:00.083Z,16.27
2023-12-18T00:51:02.918Z,15.95
2023-12-18T00:54:05.667Z,11.23
2023-12-18T00:57:08.410Z,14.87
2023-12-18T01:00:11.706Z,16.00
2023-12-18T01:03:14.621Z,11.13
2023-12-18T01:06:17.613Z,9.73
2023-12-18T01:09:20.274Z,10.43
2023-12-18T01:12:22.927Z,8.87
2023-12-18T01:15:25.877Z,9.05
2023-12-18T01:18:28.681Z,11.05
2023-12-18T01:21:31.634Z,10.18
2023-12-18T01:24:34.469Z,9.43
2023-12-18T01:27:37.436Z,10.30
2023-12-18T01:30:40.379Z,9.10
2023-12-18T01:33:43.193Z,10.50
2023-12-18T01:36:45.982Z,13.85
2023-12-18T01:39:48.642Z,14.30
2023-12-18T01:42:51.322Z,14.93
2023-12-18T01:45:58.943Z,17.90
2023-12-18T01:49:02.655Z,17.92
2023-12-18T01:52:06.331Z,15.07
2023-12-18T01:55:11.503Z,21.17
2023-12-18T01:58:15.039Z,18.80
2023-12-18T02:01:17.982Z,12.93
2023-12-18T02:04:21.324Z,12.35
2023-12-18T02:07:25.074Z,9.65
2023-12-18T02:10:28.252Z,9.97
2023-12-18T02:13:30.906Z,13.30
2023-12-18T02:16:33.916Z,12.32
2023-12-18T02:19:36.896Z,10.10
2023-12-18T02:22:48.563Z,9.75
2023-12-18T02:25:51.928Z,12.27
2023-12-18T02:28:54.676Z,15.90
2023-12-18T02:31:58.780Z,11.55
2023-12-18T02:35:01.809Z,12.05
2023-12-18T02:38:04.905Z,11.95
2023-12-18T02:41:07.548Z,12.87
2023-12-18T02:44:10.147Z,13.83
2023-12-18T02:47:13.049Z,15.32
2023-12-18T02:50:16.797Z,15.88
2023-12-18T02:53:19.736Z,14.80
2023-12-18T02:56:22.432Z,13.60
2023-12-18T02:59:25.121Z,16.60
2023-12-18T03:02:27.760Z,13.00
2023-12-18T03:05:30.774Z,18.92
2023-12-18T03:08:33.727Z,11.93
2023-12-18T03:11:36.646Z,12.77
2023-12-18T03:14:39.524Z,16.03
2023-12-18T03:17:42.530Z,20.58
2023-12-18T03:20:45.583Z,22.77
2023-12-18T03:23:48.499Z,25.48
2023-12-18T03:26:51.367Z,18.43
2023-12-18T03:29:54.307Z,22.57
2023-12-18T03:32:57.449Z,18.52
2023-12-18T03:36:00.386Z,22.35
2023-12-18T03:39:03.418Z,16.77
2023-12-18T03:42:06.431Z,20.70
2023-12-18T03:45:10.050Z,17.87
2023-12-18T03:48:12.964Z,16.77
2023-12-18T03:51:15.759Z,18.80
2023-12-18T03:54:18.375Z,14.50
2023-12-18T03:57:21.087Z,21.57
2023-12-18T04:00:23.761Z,32.70
2023-12-18T04:03:26.456Z,20.35
2023-12-18T04:06:29.581Z,16.17
2023-12-18T04:09:32.303Z,31.83
2023-12-18T04:12:35.108Z,26.40
2023-12-18T04:15:37.835Z,20.27
2023-12-18T04:18:40.781Z,22.15
2023-12-18T04:21:43.584Z,23.55
2023-12-18T04:24:46.301Z,23.15
2023-12-18T04:27:49.176Z,22.70
2023-12-18T04:30:52.010Z,34.27
2023-12-18T04:33:55.006Z,26.02
2023-12-18T04:36:59.507Z,28.30
2023-12-18T04:40:04.968Z,20.90
2023-12-18T04:43:07.735Z,21.70
2023-12-18T04:46:10.370Z,19.43
2023-12-18T04:49:14.456Z,17.13
2023-12-18T04:52:17.181Z,22.25
2023-12-18T04:55:19.799Z,20.13
2023-12-18T04:58:22.444Z,16.27
2023-12-18T05:01:25.094Z,15.33
2023-12-18T05:04:27.825Z,15.18
2023-12-18T05:07:30.567Z,14.82
2023-12-18T05:10:33.220Z,17.90
2023-12-18T05:13:35.811Z,16.00
2023-12-18T05:16:38.409Z,20.13
2023-12-18T05:19:41.243Z,17.48
2023-12-18T05:22:44.252Z,17.25
2023-12-18T05:25:46.956Z,23.35
2023-12-18T05:28:49.614Z,20.10
2023-12-18T05:31:52.399Z,20.20
2023-12-18T05:34:55.079Z,20.55
2023-12-18T05:37:57.764Z,20.08
2023-12-18T05:41:00.533Z,23.05
2023-12-18T05:44:03.168Z,23.63
2023-12-18T05:47:05.854Z,18.53
2023-12-18T05:50:09.173Z,19.35
2023-12-18T05:53:11.835Z,18.40
2023-12-18T05:56:14.753Z,21.27
2023-12-18T05:59:17.359Z,16.03
2023-12-18T06:02:19.991Z,17.90
2023-12-18T06:05:22.610Z,18.63
2023-12-18T06:08:25.206Z,20.08
2023-12-18T06:11:27.869Z,21.20
2023-12-18T06:14:30.483Z,20.03
2023-12-18T06:17:33.834Z,19.97
2023-12-18T06:20:38.441Z,16.15
2023-12-18T06:23:44.030Z,17.55
2023-12-18T06:26:46.675Z,19.02
2023-12-18T06:29:49.405Z,16.50
2023-12-18T06:32:52.235Z,18.17
2023-12-18T06:35:55.355Z,19.55
2023-12-18T06:38:58.022Z,18.15
2023-12-18T06:42:00.706Z,21.45
2023-12-18T06:45:04.314Z,20.80
2023-12-18T06:48:07.302Z,18.47
2023-12-18T06:51:10.984Z,23.30
2023-12-18T06:54:13.813Z,18.55
2023-12-18T06:57:17.510Z,23.63
2023-12-18T07:00:28.850Z,22.83
2023-12-18T07:03:38.184Z,25.80
2023-12-18T07:06:41.028Z,20.73
2023-12-18T07:09:43.814Z,22.77
2023-12-18T07:12:47.083Z,25.83
2023-12-18T07:15:51.036Z,23.77
2023-12-18T07:18:54.863Z,26.63
2023-12-18T07:21:57.629Z,37.95
2023-12-18T07:25:00.391Z,33.33
2023-12-18T07:28:03.282Z,33.72
2023-12-18T07:31:06.022Z,30.07
2023-12-18T07:34:08.967Z,22.47
2023-12-18T07:37:11.694Z,22.35
2023-12-18T07:40:14.433Z,21.27
2023-12-18T07:43:17.233Z,22.67
2023-12-18T07:46:20.538Z,23.67
2023-12-18T07:49:23.992Z,23.70
2023-12-18T07:52:26.768Z,22.20
2023-12-18T07:55:29.453Z,22.95
2023-12-18T07:58:32.158Z,17.95
2023-12-18T08:01:35.784Z,19.40
2023-12-18T08:04:38.600Z,19.40
2023-12-18T08:07:41.366Z,18.13
2023-12-18T08:10:44.320Z,17.45
2023-12-18T08:13:50.747Z,17.17
2023-12-18T08:16:53.409Z,15.20
2023-12-18T08:19:56.073Z,16.83
2023-12-18T08:22:58.715Z,17.15
2023-12-18T08:26:01.332Z,12.95
2023-12-18T08:29:07.815Z,13.65
2023-12-18T08:32:11.759Z,16.97
2023-12-18T08:35:14.587Z,17.00
2023-12-18T08:38:17.244Z,15.77
2023-12-18T08:41:19.900Z,14.10
2023-12-18T08:44:23.056Z,13.32
2023-12-18T08:47:25.905Z,15.23
2023-12-18T08:50:28.671Z,14.83
2023-12-18T08:53:31.710Z,15.25
2023-12-18T08:56:34.440Z,12.77
2023-12-18T08:59:37.233Z,10.70
2023-12-18T09:02:40.109Z,13.50
2023-12-18T09:08:46.143Z,12.18
2023-12-18T09:11:48.824Z,13.38
2023-12-18T09:14:51.518Z,9.13
2023-12-18T09:17:54.212Z,8.10
2023-12-18T09:20:57.296Z,10.23
2023-12-18T09:24:00.019Z,8.63
2023-12-18T09:27:02.799Z,8.43
2023-12-18T09:30:07.927Z,8.90
2023-12-18T09:33:12.239Z,8.77
2023-12-18T09:36:15.656Z,9.60
2023-12-18T09:39:20.996Z,10.40
2023-12-18T09:42:23.711Z,8.05
2023-12-18T09:45:27.063Z,10.88
2023-12-18T09:48:30.043Z,9.67
2023-12-18T09:51:38.031Z,9.77
2023-12-18T09:54:44.356Z,10.75
2023-12-18T09:57:50.281Z,8.25
2023-12-18T10:00:53.898Z,8.55
2023-12-18T10:03:56.902Z,6.13
2023-12-18T10:07:00.556Z,7.27
2023-12-18T10:10:03.520Z,7.40
2023-12-18T10:13:08.541Z,6.97
2023-12-18T10:16:12.195Z,7.70
2023-12-18T10:19:14.910Z,4.60
2023-12-18T10:22:17.964Z,6.47
2023-12-18T10:25:21.644Z,6.13
2023-12-18T10:28:24.295Z,8.85
2023-12-18T10:31:27.126Z,7.07
2023-12-18T10:34:29.974Z,6.67
2023-12-18T10:37:34.550Z,6.27
2023-12-18T10:40:38.533Z,4.78
2023-12-18T10:43:41.868Z,8.43
2023-12-18T10:46:49.058Z,3.92
2023-12-18T10:49:54.653Z,5.47
2023-12-18T10:53:00.115Z,7.20
2023-12-18T10:56:05.371Z,2.63
2023-12-18T10:59:09.639Z,4.03
2023-12-18T11:02:13.773Z,1.33
2023-12-18T11:05:18.569Z,3.73
2023-12-18T11:08:21.854Z,3.03
2023-12-18T11:11:26.136Z,2.83
2023-12-18T11:15:03.708Z,2.63
2023-12-18T11:18:09.515Z,3.15
2023-12-18T11:21:12.333Z,2.53
2023-12-18T11:24:15.096Z,2.27
2023-12-18T11:27:18.932Z,3.53
2023-12-18T11:30:25.413Z,2.30
2023-12-18T11:33:36.064Z,3.42
2023-12-18T11:36:45.288Z,2.30
2023-12-18T11:39:48.066Z,4.43
2023-12-18T11:42:51.037Z,3.17
2023-12-18T11:46:09.861Z,2.13
2023-12-18T11:49:18.818Z,2.92
2023-12-18T11:52:21.815Z,2.83
2023-12-18T11:55:48.602Z,4.47
2023-12-18T11:58:51.567Z,2.63
2023-12-18T12:01:54.531Z,2.20
2023-12-18T12:04:58.026Z,1.75
2023-12-18T12:08:02.283Z,2.87
2023-12-18T12:11:04.928Z,3.63
2023-12-18T12:14:07.687Z,2.85
2023-12-18T12:17:10.318Z,4.13
2023-12-18T12:20:15.959Z,2.35
2023-12-18T12:23:18.792Z,5.70
2023-12-18T12:26:24.123Z,3.30
2023-12-18T12:29:27.824Z,3.80
2023-12-18T12:32:30.641Z,4.35
2023-12-18T12:35:33.656Z,5.22
2023-12-18T12:38:37.901Z,4.10
2023-12-18T12:41:40.761Z,2.50
2023-12-18T12:44:43.424Z,3.45
2023-12-18T12:47:47.701Z,3.15
2023-12-18T12:50:51.695Z,3.20
2023-12-18T12:53:54.321Z,3.00
2023-12-18T12:56:57.023Z,3.30
2023-12-18T12:59:59.979Z,2.28
2023-12-18T13:03:03.389Z,2.83
2023-12-18T13:06:06.589Z,4.22
2023-12-18T13:09:10.802Z,2.17
2023-12-18T13:12:16.688Z,3.93
2023-12-18T13:15:19.549Z,3.13
2023-12-18T13:18:23.805Z,1.98
2023-12-18T13:21:26.648Z,3.80
2023-12-18T13:24:30.354Z,2.73
2023-12-18T13:27:33.060Z,3.23
2023-12-18T13:30:36.302Z,2.55
2023-12-18T13:33:39.117Z,4.35
2023-12-18T13:36:42.015Z,3.70
2023-12-18T13:39:44.914Z,3.37
2023-12-18T13:42:47.861Z,3.80
2023-12-18T13:45:50.640Z,4.32
2023-12-18T13:48:53.411Z,3.33
2023-12-18T13:51:56.213Z,3.22
2023-12-18T13:54:58.896Z,3.33
2023-12-18T13:58:01.597Z,3.33
2023-12-18T14:01:05.286Z,3.60
2023-12-18T14:04:08.338Z,6.50
2023-12-18T14:07:11.181Z,4.13
2023-12-18T14:10:13.935Z,3.33
2023-12-18T14:13:16.678Z,3.40
2023-12-18T14:16:19.400Z,9.65
2023-12-18T14:19:22.120Z,13.05
2023-12-18T14:22:25.135Z,17.25
2023-12-18T14:25:27.878Z,10.70
2023-12-18T14:28:32.284Z,7.53
2023-12-18T14:31:35.336Z,4.97
2023-12-18T14:34:38.213Z,6.70
2023-12-18T14:37:40.958Z,7.75
2023-12-18T14:40:43.668Z,6.50
2023-12-18T14:43:46.921Z,6.00
2023-12-18T14:46:49.672Z,7.95
2023-12-18T14:49:52.440Z,8.57
2023-12-18T14:52:57.165Z,10.00
2023-12-18T14:55:59.837Z,8.27
2023-12-18T14:59:02.538Z,16.70
2023-12-18T15:02:05.224Z,17.42
2023-12-18T15:05:08.071Z,19.08
2023-12-18T15:08:10.732Z,14.93
2023-12-18T15:11:13.427Z,12.87
2023-12-18T15:14:16.026Z,10.17
2023-12-18T15:17:18.762Z,11.77
2023-12-18T15:20:21.598Z,11.40
2023-12-18T15:23:24.201Z,9.10
2023-12-18T15:26:26.815Z,12.20
2023-12-18T15:29:31.194Z,10.30
2023-12-18T15:32:33.850Z,12.35
2023-12-18T15:35:36.808Z,15.60
2023-12-18T15:38:39.849Z,14.32
2023-12-18T15:41:42.501Z,17.70
2023-12-18T15:44:46.947Z,15.90
2023-12-18T15:47:49.718Z,15.98
2023-12-18T15:50:52.490Z,17.83
2023-12-18T15:53:55.944Z,13.85
2023-12-18T15:56:58.848Z,18.63
2023-12-18T16:00:02.960Z,12.07
2023-12-18T16:03:12.475Z,11.68
2023-12-18T16:06:15.386Z,10.65
2023-12-18T16:09:18.018Z,14.50
2023-12-18T16:12:20.951Z,12.63
2023-12-18T16:15:23.712Z,15.93
2023-12-18T16:18:26.551Z,11.68
2023-12-18T16:21:30.644Z,20.63
2023-12-18T16:24:34.200Z,12.18
2023-12-18T16:27:36.864Z,16.20
2023-12-18T16:30:45.037Z,17.37
2023-12-18T16:33:52.672Z,12.52
2023-12-18T16:36:55.409Z,15.93
2023-12-18T16:39:58.853Z,16.08
2023-12-18T16:43:01.656Z,16.87
2023-12-18T16:46:05.102Z,16.07
2023-12-18T16:49:07.806Z,20.50
2023-12-18T16:52:10.543Z,19.20
2023-12-18T16:55:13.608Z,18.60
2023-12-18T16:58:16.328Z,14.93
2023-12-18T17:01:21.318Z,18.07
2023-12-18T17:04:24.193Z,15.43
2023-12-18T17:07:27.225Z,19.17
2023-12-18T17:10:30.264Z,16.65
2023-12-18T17:13:32.914Z,19.43
2023-12-18T17:16:36.093Z,16.77
2023-12-18T17:19:38.830Z,12.75
2023-12-18T17:22:42.051Z,16.73
2023-12-18T17:25:45.087Z,15.23
2023-12-18T17:28:47.731Z,15.13
2023-12-18T17:31:50.521Z,13.20
2023-12-18T17:34:53.191Z,15.75
2023-12-18T17:37:55.833Z,13.65
2023-12-18T17:40:58.475Z,17.85
2023-12-18T17:44:01.169Z,23.43
2023-12-18T17:47:05.216Z,27.23
2023-12-18T17:50:08.412Z,26.33
2023-12-18T17:53:11.203Z,27.90
2023-12-18T17:56:13.953Z,43.10
2023-12-18T17:59:16.608Z,39.07
2023-12-18T18:02:19.288Z,41.47
2023-12-18T18:05:22.030Z,38.15
2023-12-18T18:08:24.752Z,35.92
2023-12-18T18:11:27.436Z,43.70
2023-12-18T18:14:30.195Z,37.47
2023-12-18T18:17:33.073Z,39.97
2023-12-18T18:20:36.107Z,37.92
2023-12-18T18:23:38.765Z,49.35
2023-12-18T18:26:41.782Z,153.68
2023-12-18T18:29:49.854Z,75.03
2023-12-18T18:32:53.738Z,56.33
2023-12-18T18:35:56.567Z,71.93
2023-12-18T18:38:59.354Z,59.75
2023-12-18T18:42:02.528Z,37.20
2023-12-18T18:45:05.633Z,52.70
2023-12-18T18:48:08.818Z,54.87
2023-12-18T18:51:11.613Z,63.75
2023-12-18T18:54:14.415Z,54.17
2023-12-18T18:57:17.400Z,48.55
2023-12-18T19:00:21.967Z,43.17
2023-12-18T19:03:24.786Z,58.00
2023-12-18T19:06:27.864Z,61.78
2023-12-18T19:09:30.830Z,62.30
2023-12-18T19:12:35.900Z,70.38
2023-12-18T19:15:38.854Z,55.93
2023-12-18T19:18:41.999Z,31.67
2023-12-18T19:21:44.763Z,27.38
2023-12-18T19:24:47.617Z,30.00
2023-12-18T19:27:50.525Z,35.63
2023-12-18T19:30:54.106Z,37.87
2023-12-18T19:33:57.023Z,22.80
2023-12-18T19:36:59.889Z,22.88
2023-12-18T19:40:02.854Z,23.65
2023-12-18T19:43:07.323Z,33.22
2023-12-18T19:46:10.451Z,56.33
2023-12-18T19:49:14.434Z,45.50
2023-12-18T19:52:20.250Z,37.20
2023-12-18T19:55:22.912Z,48.92
2023-12-18T19:58:27.821Z,44.65
2023-12-18T20:01:30.554Z,46.00
2023-12-18T20:04:33.234Z,47.40
2023-12-18T20:07:36.144Z,40.03
2023-12-18T20:10:39.382Z,34.58
2023-12-18T20:13:42.009Z,40.47
2023-12-18T20:16:44.904Z,45.87
2023-12-18T20:19:47.694Z,47.83
2023-12-18T20:22:50.419Z,43.92
2023-12-18T20:25:53.126Z,39.35
2023-12-18T20:28:55.773Z,106.43
2023-12-18T20:31:58.466Z,119.00
2023-12-18T20:35:06.343Z,98.53
2023-12-18T20:38:11.214Z,73.53
2023-12-18T20:41:14.052Z,85.40
2023-12-18T20:44:18.573Z,82.32
2023-12-18T20:47:21.212Z,79.30
2023-12-18T20:50:23.941Z,73.67
2023-12-18T20:53:26.537Z,43.92
2023-12-18T20:56:29.257Z,41.78
2023-12-18T20:59:32.166Z,54.10
2023-12-18T21:02:34.846Z,43.90
2023-12-18T21:05:37.587Z,50.53
2023-12-18T21:08:40.326Z,55.10
2023-12-18T21:11:43.206Z,44.83
2023-12-18T21:14:45.890Z,42.10
2023-12-18T21:17:48.689Z,45.60
2023-12-18T21:20:51.365Z,59.60
2023-12-18T21:23:57.079Z,80.03
2023-12-18T21:27:00.140Z,65.18
2023-12-18T21:30:02.782Z,59.83
2023-12-18T21:33:05.634Z,38.60
2023-12-18T21:36:11.055Z,36.27
2023-12-18T21:39:13.877Z,34.95
2023-12-18T21:42:16.505Z,43.50
2023-12-18T21:45:20.481Z,39.50
2023-12-18T21:48:23.379Z,44.07
2023-12-18T21:51:31.057Z,27.93
2023-12-18T21:54:40.368Z,28.05
2023-12-18T21:57:43.163Z,26.85
2023-12-18T22:00:46.021Z,27.30
2023-12-18T22:03:48.784Z,27.17
2023-12-18T22:06:51.768Z,38.60
2023-12-18T22:09:56.797Z,29.83
2023-12-18T22:13:00.133Z,30.77
2023-12-18T22:16:03.002Z,35.58
2023-12-18T22:19:05.725Z,30.77
2023-12-18T22:22:08.388Z,31.10
2023-12-18T22:25:11.229Z,27.20
2023-12-18T22:28:13.905Z,32.20
2023-12-18T22:31:16.823Z,26.63
2023-12-18T22:34:19.660Z,31.00
2023-12-18T22:37:22.415Z,29.00
2023-12-18T22:40:25.058Z,32.05
2023-12-18T22:43:27.693Z,26.15
2023-12-18T22:46:30.350Z,25.45
2023-12-18T22:49:33.184Z,28.63
2023-12-18T22:52:35.926Z,24.07
2023-12-18T22:55:38.537Z,29.60
2023-12-18T22:58:41.202Z,26.88
2023-12-18T23:01:43.842Z,20.73
2023-12-18T23:04:46.680Z,25.37
2023-12-18T23:07:50.247Z,23.63
2023-12-18T23:10:53.624Z,26.38
2023-12-18T23:13:56.318Z,26.77
2023-12-18T23:16:58.957Z,27.20
2023-12-18T23:20:01.949Z,33.07
2023-12-18T23:23:04.691Z,28.57
2023-12-18T23:26:09.849Z,30.33
2023-12-18T23:29:12.593Z,30.83
2023-12-18T23:32:15.538Z,29.60
2023-12-18T23:35:18.330Z,27.30
2023-12-18T23:38:21.182Z,31.17
2023-12-18T23:41:23.916Z,31.35
2023-12-18T23:44:26.720Z,29.08
2023-12-18T23:47:29.425Z,29.08
2023-12-18T23:50:32.131Z,36.83
2023-12-18T23:53:34.873Z,57.67
2023-12-18T23:56:40.458Z,26.33
2023-12-18T23:59:43.681Z,23.42
